This is the latest recevied weather packets stored in our database for station/object SP5IZJ-2. If no packets are shown the sender has not sent any weather packets the latest 10 day(s).
| Time | Temp. | Humidity | Pressure | Rain* | Wind** | Luminosity | Snow |
|---|---|---|---|---|---|---|---|
| 1777929736 | 13.89° C | 58% | 1003.7 hPa | 0 mm | - | - | - |
| 1777929323 | 14.44° C | 58% | 1003.8 hPa | 0 mm | - | - | - |
| 1777926800 | 16.67° C | 53% | 1003.8 hPa | 0 mm | - | - | - |
| 1777925958 | 16.67° C | 51% | 1003.5 hPa | 0 mm | - | - | - |
| 1777925538 | 17.22° C | 52% | 1003.5 hPa | 0 mm | - | - | - |
| 1777925118 | 17.22° C | 51% | 1003.5 hPa | 0 mm | - | - | - |
| 1777924700 | 17.22° C | 50% | 1003.4 hPa | 0 mm | - | - | - |
| 1777922179 | 18.33° C | 46% | 1003.1 hPa | 0 mm | - | - | - |
| 1777918401 | 20.56° C | 41% | 1002.8 hPa | 0 mm | - | - | - |
| 1777917983 | 21.67° C | 40% | 1002.8 hPa | 0 mm | - | - | - |
| 1777915045 | 26.11° C | 34% | 1002.5 hPa | 0 mm | - | - | - |
| 1777913794 | 26.11° C | 33% | 1002.5 hPa | 0 mm | - | - | - |
| 1777913363 | 26.11° C | 32% | 1002.4 hPa | 0 mm | - | - | - |
| 1777912104 | 27.78° C | 30% | 1002.4 hPa | 0 mm | - | - | - |
| 1777911266 | 28.33° C | 27% | 1002.3 hPa | 0 mm | - | - | - |
| 1777910844 | 27.78° C | 28% | 1002.5 hPa | 0 mm | - | - | - |
| 1777909587 | 30° C | 26% | 1002.5 hPa | 0 mm | - | - | - |
| 1777909165 | 30.56° C | 25% | 1002.8 hPa | 0 mm | - | - | - |
| 1777906648 | 29.44° C | 27% | 1002.7 hPa | 0 mm | - | - | - |
| 1777902872 | 28.89° C | 27% | 1003.1 hPa | 0 mm | - | - | - |
| 1777902032 | 28.89° C | 28% | 1003.2 hPa | 0 mm | - | - | - |
| 1777900364 | 29.44° C | 29% | 1003.6 hPa | 0 mm | - | - | - |
| 1777899511 | 28.33° C | 29% | 1003.8 hPa | 0 mm | - | - | - |
| 1777896992 | 28.33° C | 30% | 1004 hPa | 0 mm | - | - | - |
| 1777893214 | 27.78° C | 30% | 1004.6 hPa | 0 mm | - | - | - |
* Rain latest hour (hover to see other rain measurements)
** Current wind speed in m/s (hover to see current wind gust speed)